Time;durP1;ratioP1;P1;durP2;ratioP2;P2;SDS_P1;SDS_P2;PMS_P1;PMS_P2;Temp;Humidity;BMP_temperature;BMP_pressure;BME280_temperature;BME280_humidity;BME280_pressure;Samples;Min_cycle;Max_cycle;Signal;HPM_P1;HPM_P2
2023/08/12 00:06:51;;;;;;;8.00;4.57;;;20.50;99.90;;;;;;21060981;28;20234;-67
2023/08/12 00:16:53;;;;;;;9.90;4.70;;;20.30;99.90;;;;;;21078323;28;20202;-72
2023/08/12 00:26:55;;;;;;;8.30;4.40;;;20.30;99.90;;;;;;21092481;28;20261;-71
2023/08/12 00:36:56;;;;;;;7.33;4.10;;;20.20;99.90;;;;;;21094937;28;20209;-69
2023/08/12 00:46:59;;;;;;;8.13;4.07;;;20.10;99.90;;;;;;21094965;28;20265;-69
2023/08/12 00:57:01;;;;;;;9.73;4.27;;;20.10;99.90;;;;;;21093537;28;20268;-71
2023/08/12 01:07:03;;;;;;;9.70;5.03;;;20.00;99.90;;;;;;21092892;28;20303;-72
2023/08/12 01:17:08;;;;;;;19.07;4.03;;;19.90;99.90;;;;;;21091352;28;20263;-71
2023/08/12 01:27:12;;;;;;;5.00;3.90;;;19.80;99.90;;;;;;21090619;28;20242;-72
2023/08/12 01:37:23;;;;;;;7.37;3.83;;;19.70;99.90;;;;;;21089407;28;20214;-69
2023/08/12 01:47:25;;;;;;;7.30;3.60;;;19.60;99.90;;;;;;21089004;28;20610;-68
2023/08/12 01:57:26;;;;;;;7.87;3.70;;;19.60;99.90;;;;;;21088636;28;20203;-71
2023/08/12 02:07:28;;;;;;;8.50;3.67;;;19.50;99.90;;;;;;21087725;28;20249;-68
2023/08/12 02:17:30;;;;;;;6.07;3.50;;;19.40;99.90;;;;;;21086764;28;20665;-67
2023/08/12 02:27:32;;;;;;;7.60;3.50;;;19.30;99.90;;;;;;21086110;28;20712;-67
2023/08/12 02:37:33;;;;;;;7.17;4.20;;;19.40;99.90;;;;;;21085991;28;20234;-67
2023/08/12 02:47:35;;;;;;;7.27;3.63;;;19.40;99.90;;;;;;21082998;28;20238;-69
2023/08/12 02:57:37;;;;;;;5.00;3.50;;;19.40;99.90;;;;;;21083912;28;20206;-72
2023/08/12 03:07:39;;;;;;;5.87;3.47;;;19.40;99.90;;;;;;21082900;28;20332;-68
2023/08/12 03:17:41;;;;;;;12.03;3.80;;;19.30;99.90;;;;;;21082145;28;20294;-69
2023/08/12 03:27:43;;;;;;;7.17;3.70;;;19.30;99.90;;;;;;21081519;28;20242;-70
2023/08/12 03:37:45;;;;;;;7.73;3.90;;;19.30;99.90;;;;;;21081081;28;20297;-71
2023/08/12 03:47:46;;;;;;;9.37;4.60;;;19.20;99.90;;;;;;21079733;28;20329;-72
2023/08/12 03:57:48;;;;;;;6.23;4.10;;;19.30;99.90;;;;;;21078992;28;20206;-72
2023/08/12 04:07:50;;;;;;;8.03;4.33;;;19.50;99.90;;;;;;21079655;28;20325;-71
2023/08/12 04:17:52;;;;;;;6.33;4.43;;;19.50;99.90;;;;;;21078828;28;20210;-72
2023/08/12 04:27:54;;;;;;;7.87;4.40;;;19.50;99.90;;;;;;21077985;28;20234;-70
2023/08/12 04:37:55;;;;;;;7.70;4.10;;;19.40;99.90;;;;;;21078226;28;20207;-72
2023/08/12 04:48:00;;;;;;;8.67;4.70;;;19.40;99.90;;;;;;21077350;28;20265;-72
2023/08/12 04:58:03;;;;;;;8.60;4.20;;;19.40;99.90;;;;;;21076889;28;20237;-70
2023/08/12 05:08:04;;;;;;;5.47;4.67;;;19.50;99.90;;;;;;21080007;28;20238;-70
2023/08/12 05:18:06;;;;;;;7.97;5.37;;;19.40;99.90;;;;;;21091524;28;20229;-71
2023/08/12 05:28:08;;;;;;;9.00;4.83;;;19.40;99.90;;;;;;21090592;28;20692;-71
2023/08/12 05:38:10;;;;;;;11.13;6.37;;;19.30;99.90;;;;;;21090455;28;20749;-71
2023/08/12 05:48:12;;;;;;;8.23;4.80;;;19.40;99.90;;;;;;21089289;28;20240;-70
2023/08/12 05:58:13;;;;;;;10.07;5.33;;;19.40;99.90;;;;;;21090630;28;20202;-67
2023/08/12 06:08:15;;;;;;;10.53;6.57;;;19.60;99.90;;;;;;21088468;28;20252;-71
2023/08/12 06:18:17;;;;;;;10.17;5.67;;;19.70;99.90;;;;;;21068579;28;20210;-71
2023/08/12 06:28:19;;;;;;;10.77;6.37;;;19.70;99.90;;;;;;21086411;28;20295;-68
2023/08/12 06:38:20;;;;;;;13.50;5.57;;;19.80;99.90;;;;;;21085590;28;20241;-70
2023/08/12 06:48:22;;;;;;;11.27;5.63;;;20.10;99.90;;;;;;21084801;28;20753;-69
2023/08/12 06:58:24;;;;;;;14.53;8.47;;;20.10;99.90;;;;;;21083640;28;20236;-69
2023/08/12 07:08:27;;;;;;;13.43;5.70;;;20.30;99.90;;;;;;21082835;28;20242;-71
2023/08/12 07:18:29;;;;;;;13.00;7.13;;;20.50;99.90;;;;;;21082294;28;20214;-71
2023/08/12 07:28:30;;;;;;;9.97;5.10;;;20.70;99.90;;;;;;21081349;28;20266;-71
2023/08/12 07:38:32;;;;;;;11.93;6.00;;;20.90;99.90;;;;;;21080427;28;20565;-68
2023/08/12 07:48:34;;;;;;;8.97;5.13;;;21.00;99.90;;;;;;21080045;28;20292;-68
2023/08/12 07:58:36;;;;;;;17.80;11.13;;;21.30;99.90;;;;;;21079903;28;20640;-68
2023/08/12 08:08:37;;;;;;;6.50;5.40;;;21.60;99.90;;;;;;21078922;28;20680;-68
2023/08/12 08:18:39;;;;;;;6.63;4.67;;;21.70;99.90;;;;;;21079126;28;20203;-68
2023/08/12 08:28:41;;;;;;;8.80;4.70;;;22.10;99.90;;;;;;21078308;28;20234;-70
2023/08/12 08:38:43;;;;;;;9.17;4.20;;;22.60;99.90;;;;;;21077763;28;20203;-69
2023/08/12 08:48:48;;;;;;;6.60;4.07;;;22.90;99.90;;;;;;21090259;28;20265;-69
2023/08/12 08:58:52;;;;;;;7.70;4.10;;;23.20;99.90;;;;;;21093160;28;20234;-68
2023/08/12 09:08:54;;;;;;;5.93;3.80;;;23.50;99.90;;;;;;21092622;28;20235;-68
2023/08/12 09:18:56;;;;;;;6.77;4.00;;;23.60;99.90;;;;;;21092252;28;20238;-68
2023/08/12 09:28:59;;;;;;;5.73;3.90;;;23.70;99.20;;;;;;21091385;28;20277;-70
2023/08/12 09:39:06;;;;;;;9.87;4.27;;;23.70;98.80;;;;;;21090109;28;20308;-68
2023/08/12 09:49:08;;;;;;;6.20;4.10;;;23.80;98.80;;;;;;21089108;28;20234;-69
2023/08/12 09:59:12;;;;;;;8.77;5.70;;;23.70;99.00;;;;;;21088451;28;20242;-68
2023/08/12 10:09:15;;;;;;;7.10;4.10;;;23.80;99.30;;;;;;21087622;28;20329;-69
2023/08/12 10:19:20;;;;;;;12.63;6.93;;;23.90;99.50;;;;;;21086972;28;20611;-69
2023/08/12 10:29:25;;;;;;;6.83;4.33;;;24.30;99.20;;;;;;21085934;28;20339;-69
2023/08/12 10:39:30;;;;;;;9.10;4.57;;;24.70;98.10;;;;;;21067558;28;20252;-72
2023/08/12 10:49:39;;;;;;;6.97;4.80;;;24.80;97.70;;;;;;21084352;28;20340;-70
2023/08/12 10:59:53;;;;;;;12.25;8.70;;;24.90;97.30;;;;;;21083564;28;20301;-68
2023/08/12 11:10:03;;;;;;;9.87;4.40;;;25.30;97.00;;;;;;21082137;28;20610;-71
2023/08/12 11:20:12;;;;;;;9.17;4.30;;;25.60;96.60;;;;;;21081811;28;20297;-69
2023/08/12 11:30:17;;;;;;;6.87;3.90;;;25.80;96.20;;;;;;21081165;28;20321;-69
2023/08/12 11:40:20;;;;;;;8.27;4.10;;;25.80;95.80;;;;;;21080732;28;20732;-68
2023/08/12 11:50:24;;;;;;;6.10;3.70;;;25.90;95.40;;;;;;21080160;28;20317;-68
2023/08/12 12:00:26;;;;;;;4.50;3.60;;;26.50;94.20;;;;;;21079478;28;20731;-68
2023/08/12 12:10:29;;;;;;;6.88;3.90;;;26.50;94.40;;;;;;21078626;28;20249;-69
2023/08/12 12:20:35;;;;;;;5.70;3.70;;;26.50;94.30;;;;;;21072977;28;20206;-68
2023/08/12 12:30:37;;;;;;;12.27;4.15;;;26.20;93.40;;;;;;21095565;28;20719;-69
2023/08/12 12:40:39;;;;;;;6.90;2.73;;;26.10;93.00;;;;;;21094895;28;20729;-68
2023/08/12 12:50:41;;;;;;;5.33;1.97;;;24.70;95.50;;;;;;21094593;28;20260;-70
2023/08/12 13:00:42;;;;;;;3.60;1.83;;;21.30;99.90;;;;;;21093024;28;20203;-70
2023/08/12 13:10:44;;;;;;;5.23;2.33;;;20.60;99.90;;;;;;21092400;28;20246;-69
2023/08/12 13:20:46;;;;;;;5.47;2.40;;;20.30;99.90;;;;;;21091954;28;20198;-72
2023/08/12 13:30:48;;;;;;;7.43;2.80;;;20.30;99.90;;;;;;21089768;28;20694;-70
2023/08/12 13:40:49;;;;;;;4.17;2.60;;;20.60;99.90;;;;;;21090142;28;20729;-71
2023/08/12 13:50:52;;;;;;;5.70;2.70;;;20.90;99.90;;;;;;21089409;28;20234;-72
2023/08/12 14:00:53;;;;;;;6.17;2.30;;;21.60;99.90;;;;;;21088165;28;20249;-70
2023/08/12 14:10:55;;;;;;;7.37;2.37;;;22.50;99.90;;;;;;21087517;28;20701;-68
2023/08/12 14:20:57;;;;;;;3.83;2.40;;;22.50;99.90;;;;;;21087187;28;20293;-67
2023/08/12 14:30:59;;;;;;;4.30;2.30;;;22.40;99.90;;;;;;21085762;28;20321;-67
2023/08/12 14:41:01;;;;;;;7.27;2.77;;;22.20;99.90;;;;;;21085277;28;20205;-66
2023/08/12 14:51:03;;;;;;;2.30;2.00;;;22.10;99.90;;;;;;21084684;28;20686;-66
2023/08/12 15:01:05;;;;;;;6.53;2.40;;;22.30;99.90;;;;;;21083960;28;20207;-68
2023/08/12 15:11:06;;;;;;;4.27;2.20;;;23.80;99.90;;;;;;21082895;28;20238;-68
2023/08/12 15:21:08;;;;;;;4.60;2.40;;;24.40;99.90;;;;;;21082588;28;20213;-68
2023/08/12 15:31:14;;;;;;;3.90;2.20;;;23.90;99.90;;;;;;21063441;28;20241;-69
2023/08/12 15:41:16;;;;;;;3.90;2.50;;;23.50;99.90;;;;;;21080627;28;20206;-68
2023/08/12 15:51:18;;;;;;;3.77;2.67;;;23.30;99.90;;;;;;21079976;28;20295;-68
2023/08/12 16:01:20;;;;;;;3.77;2.37;;;23.20;99.90;;;;;;21079336;28;20298;-67
2023/08/12 16:11:22;;;;;;;3.57;2.60;;;23.10;99.90;;;;;;21079181;28;20246;-68
2023/08/12 16:21:23;;;;;;;3.87;2.83;;;23.00;99.90;;;;;;21078999;28;20202;-72
2023/08/12 16:31:26;;;;;;;4.93;2.50;;;22.90;99.90;;;;;;21078187;28;20337;-71
2023/08/12 16:41:27;;;;;;;4.20;2.90;;;22.90;99.90;;;;;;21077846;28;20206;-69
2023/08/12 16:51:29;;;;;;;9.53;4.10;;;22.90;99.90;;;;;;21077869;28;20337;-69
2023/08/12 17:01:31;;;;;;;4.40;2.93;;;22.80;99.90;;;;;;21076981;28;20206;-69
2023/08/12 17:11:33;;;;;;;4.33;2.73;;;22.80;99.90;;;;;;21091908;28;20268;-71
2023/08/12 17:21:35;;;;;;;5.90;3.20;;;22.80;99.90;;;;;;21092142;28;20285;-71
2023/08/12 17:31:37;;;;;;;4.27;3.10;;;22.80;99.90;;;;;;21091015;28;20701;-69
2023/08/12 17:41:38;;;;;;;4.77;3.13;;;22.90;99.90;;;;;;21090104;28;20217;-69
2023/08/12 17:51:40;;;;;;;5.07;3.27;;;22.90;99.90;;;;;;21089723;28;20266;-69
2023/08/12 18:01:44;;;;;;;4.57;3.07;;;23.00;99.90;;;;;;21089122;28;20232;-68
2023/08/12 18:11:45;;;;;;;6.57;3.13;;;23.00;99.90;;;;;;21087562;28;20273;-69
2023/08/12 18:21:47;;;;;;;8.63;3.83;;;23.00;99.90;;;;;;21087596;28;20234;-69
2023/08/12 18:31:49;;;;;;;5.67;3.60;;;22.90;99.90;;;;;;21085900;28;20632;-68
2023/08/12 18:41:51;;;;;;;9.47;4.77;;;22.80;99.90;;;;;;21085037;28;20293;-68
2023/08/12 18:51:52;;;;;;;5.30;3.70;;;22.70;99.90;;;;;;21066743;28;20262;-69
2023/08/12 19:01:55;;;;;;;11.63;5.40;;;22.60;99.90;;;;;;21083771;28;20203;-68
2023/08/12 19:11:57;;;;;;;5.23;3.90;;;22.50;99.90;;;;;;21148057;28;20340;-68
2023/08/12 19:21:58;;;;;;;7.67;4.73;;;22.40;99.90;;;;;;21167078;28;20213;-68
2023/08/12 19:32:00;;;;;;;7.40;4.83;;;22.30;99.90;;;;;;21165131;28;20317;-68
2023/08/12 19:42:02;;;;;;;5.60;4.57;;;22.30;99.90;;;;;;21165098;28;20210;-68
2023/08/12 19:52:04;;;;;;;10.47;5.17;;;22.20;99.90;;;;;;21146904;28;20235;-70
2023/08/12 20:02:06;;;;;;;11.10;5.70;;;22.20;99.90;;;;;;21164002;28;20198;-70
2023/08/12 20:12:08;;;;;;;7.33;5.53;;;22.20;99.90;;;;;;21162908;28;20237;-70
2023/08/12 20:22:10;;;;;;;9.60;5.30;;;22.20;99.90;;;;;;21163700;28;20210;-71
2023/08/12 20:32:13;;;;;;;11.33;5.13;;;22.20;99.90;;;;;;21163244;28;20237;-70
2023/08/12 20:42:15;;;;;;;8.00;5.37;;;22.10;99.90;;;;;;21172349;28;20202;-68
2023/08/12 20:52:16;;;;;;;7.13;4.70;;;22.20;99.90;;;;;;21178705;28;20229;-68
2023/08/12 21:02:18;;;;;;;8.60;5.90;;;22.10;99.90;;;;;;21177811;28;20206;-68
2023/08/12 21:12:21;;;;;;;7.17;5.80;;;22.10;99.90;;;;;;21176952;28;20791;-68
2023/08/12 21:22:22;;;;;;;7.43;4.30;;;22.00;99.90;;;;;;21176498;28;20630;-70
2023/08/12 21:32:24;;;;;;;7.30;3.87;;;22.00;99.90;;;;;;21157274;28;20230;-68
2023/08/12 21:42:26;;;;;;;10.93;4.23;;;22.00;99.90;;;;;;21174413;28;20202;-68
2023/08/12 21:52:28;;;;;;;7.17;4.10;;;22.00;99.90;;;;;;21173428;28;20681;-69
2023/08/12 22:02:31;;;;;;;4.77;3.87;;;21.90;99.90;;;;;;21173044;28;20206;-68
2023/08/12 22:12:32;;;;;;;9.53;3.80;;;21.80;99.90;;;;;;21172284;28;20777;-68
2023/08/12 22:22:34;;;;;;;6.33;3.57;;;21.80;99.90;;;;;;21171866;28;20201;-68
2023/08/12 22:32:36;;;;;;;4.83;3.47;;;21.80;99.90;;;;;;21152705;28;20262;-67
2023/08/12 22:42:38;;;;;;;6.17;3.63;;;21.70;99.90;;;;;;21152103;28;20284;-69
2023/08/12 22:52:40;;;;;;;7.50;3.77;;;21.70;99.90;;;;;;21169492;28;20241;-69
2023/08/12 23:02:42;;;;;;;8.87;3.80;;;21.60;99.90;;;;;;21167760;28;20598;-68
2023/08/12 23:12:44;;;;;;;10.73;3.93;;;21.60;99.90;;;;;;21149203;28;20282;-69
2023/08/12 23:22:46;;;;;;;6.17;3.90;;;21.50;99.90;;;;;;21167763;28;20285;-69
2023/08/12 23:32:47;;;;;;;7.07;3.80;;;21.50;99.90;;;;;;21166700;28;20340;-70
2023/08/12 23:42:49;;;;;;;5.80;4.03;;;21.40;99.90;;;;;;21165519;28;20251;-71
2023/08/12 23:52:51;;;;;;;5.27;3.77;;;21.40;99.90;;;;;;21164815;28;20233;-71
